Time;durP1;ratioP1;P1;durP2;ratioP2;P2;SDS_P1;SDS_P2;PMS_P1;PMS_P2;Temp;Humidity;BMP_temperature;BMP_pressure;BME280_temperature;BME280_humidity;BME280_pressure;Samples;Min_cycle;Max_cycle;Signal;HPM_P1;HPM_P2
2022/10/17 00:01:00;;;;;;;;;;;20.00;99.90;;;;;;5094401;28;19909;-11
2022/10/17 00:03:26;;;;;;;;;;;20.00;99.90;;;;;;5094173;28;20128;-11
2022/10/17 00:05:51;;;;;;;;;;;20.00;99.90;;;;;;5094522;28;19916;-11
2022/10/17 00:08:17;;;;;;;;;;;20.00;99.90;;;;;;5093683;28;20172;-11
2022/10/17 00:10:43;;;;;;;;;;;20.00;99.90;;;;;;5094323;28;19998;-12
2022/10/17 00:13:09;;;;;;;;;;;20.00;99.90;;;;;;5094029;28;19908;-12
2022/10/17 00:15:35;;;;;;;;;;;20.00;99.90;;;;;;5095441;28;19919;-12
2022/10/17 00:18:00;;;;;;;;;;;20.00;99.90;;;;;;5095207;28;19937;-10
2022/10/17 00:20:29;;;;;;;;;;;20.00;99.90;;;;;;5095430;28;19954;-12
2022/10/17 00:22:54;;;;;;;;;;;20.00;99.90;;;;;;5095821;28;20192;-12
2022/10/17 00:25:20;;;;;;;;;;;20.00;99.90;;;;;;5094054;28;19908;-12
2022/10/17 00:27:46;;;;;;;;;;;20.00;99.90;;;;;;5094946;28;20246;-13
2022/10/17 00:30:14;;;;;;;;;;;20.00;99.90;;;;;;5095837;28;19934;-12
2022/10/17 00:32:39;;;;;;;;;;;20.00;99.90;;;;;;5094072;28;19915;-11
2022/10/17 00:35:05;;;;;;;;;;;20.00;99.90;;;;;;5093366;28;20196;-11
2022/10/17 00:37:31;;;;;;;;;;;20.00;99.90;;;;;;5094157;28;19908;-12
2022/10/17 00:39:57;;;;;;;;;;;20.00;99.90;;;;;;5095756;28;19912;-10
2022/10/17 00:42:23;;;;;;;;;;;20.00;99.90;;;;;;5095465;28;19916;-12
2022/10/17 00:44:49;;;;;;;;;;;20.00;99.90;;;;;;5094138;28;19916;-11
2022/10/17 00:47:18;;;;;;;;;;;20.00;99.90;;;;;;5095285;28;19908;-10
2022/10/17 00:49:44;;;;;;;;;;;20.00;99.90;;;;;;5095535;28;19908;-10
2022/10/17 00:52:18;;;;;;;;;;;20.00;99.90;;;;;;5095496;28;19926;-12
2022/10/17 00:54:47;;;;;;;;;;;20.00;99.90;;;;;;5093558;28;20007;-11
2022/10/17 00:57:13;;;;;;;;;;;20.00;99.90;;;;;;5094846;28;19913;-13
2022/10/17 00:59:40;;;;;;;;;;;20.00;99.90;;;;;;5093317;28;19927;-13
2022/10/17 01:02:09;;;;;;;;;;;20.00;99.90;;;;;;5093504;28;19943;-12
2022/10/17 01:04:35;;;;;;;;;;;20.00;99.90;;;;;;5094438;28;19948;-12
2022/10/17 01:07:01;;;;;;;;;;;20.00;99.90;;;;;;5094707;28;20053;-10
2022/10/17 01:09:26;;;;;;;;;;;20.00;99.90;;;;;;5095740;28;19974;-12
2022/10/17 01:12:10;;;;;;;;;;;20.00;99.90;;;;;;5095301;28;19947;-10
2022/10/17 01:14:51;;;;;;;;;;;20.00;99.90;;;;;;5093017;28;19915;-11
2022/10/17 01:17:26;;;;;;;;;;;20.00;99.90;;;;;;5091275;28;20285;-12
2022/10/17 01:20:10;;;;;;;;;;;20.00;99.90;;;;;;5092458;28;19916;-10
2022/10/17 01:22:36;;;;;;;;;;;20.00;99.90;;;;;;5092798;28;19931;-12
2022/10/17 01:25:20;;;;;;;;;;;20.00;99.90;;;;;;5092120;28;19916;-11
2022/10/17 01:27:45;;;;;;;;;;;20.00;99.90;;;;;;5090427;28;19916;-11
2022/10/17 01:30:23;;;;;;;;;;;20.00;99.90;;;;;;5093317;28;19999;-11
2022/10/17 01:32:57;;;;;;;;;;;20.00;99.90;;;;;;5093461;28;19924;-11
2022/10/17 01:35:38;;;;;;;;;;;20.00;99.90;;;;;;5093263;28;19973;-10
2022/10/17 01:38:07;;;;;;;;;;;20.00;99.90;;;;;;5092454;28;19908;-11
2022/10/17 01:40:44;;;;;;;;;;;20.10;99.90;;;;;;5092740;28;19923;-11
2022/10/17 01:43:10;;;;;;;;;;;20.00;99.90;;;;;;5092749;28;19908;-12
2022/10/17 01:45:53;;;;;;;;;;;20.10;99.90;;;;;;5093646;28;19908;-12
2022/10/17 01:48:23;;;;;;;;;;;20.00;99.90;;;;;;5094566;28;19919;-11
2022/10/17 01:50:51;;;;;;;;;;;20.00;99.90;;;;;;5098554;28;19973;-11
2022/10/17 01:53:32;;;;;;;;;;;20.10;99.90;;;;;;5097967;28;19919;-12
2022/10/17 01:55:59;;;;;;;;;;;20.10;99.90;;;;;;5097900;28;19993;-11
2022/10/17 01:58:40;;;;;;;;;;;20.00;99.90;;;;;;5097379;28;19908;-12
2022/10/17 02:01:07;;;;;;;;;;;20.10;99.90;;;;;;5095714;28;20155;-11
2022/10/17 02:03:33;;;;;;;;;;;20.00;99.90;;;;;;5094759;28;20006;-12
2022/10/17 02:05:59;;;;;;;;;;;20.10;99.90;;;;;;5096398;28;19994;-11
2022/10/17 02:08:25;;;;;;;;;;;20.10;99.90;;;;;;5098449;28;19915;-11
2022/10/17 02:10:55;;;;;;;;;;;20.10;99.90;;;;;;5095595;28;19935;-11
2022/10/17 02:13:27;;;;;;;;;;;20.10;99.90;;;;;;5097779;28;20155;-11
2022/10/17 02:16:05;;;;;;;;;;;20.10;99.90;;;;;;5097377;28;20008;-12
2022/10/17 02:18:46;;;;;;;;;;;20.10;99.90;;;;;;5095462;28;20171;-10
2022/10/17 02:21:21;;;;;;;;;;;20.10;99.90;;;;;;5097358;28;20181;-10
2022/10/17 02:23:47;;;;;;;;;;;20.10;99.90;;;;;;5097685;28;20277;-12
2022/10/17 02:26:20;;;;;;;;;;;20.10;99.90;;;;;;5095802;28;19908;-12
2022/10/17 02:28:45;;;;;;;;;;;20.10;99.90;;;;;;5097553;28;20296;-11
2022/10/17 02:31:15;;;;;;;;;;;20.10;99.90;;;;;;5097129;28;19908;-11
2022/10/17 02:33:44;;;;;;;;;;;20.10;99.90;;;;;;5097574;28;20048;-11
2022/10/17 02:36:16;;;;;;;;;;;20.10;99.90;;;;;;5095447;28;19981;-11
2022/10/17 02:38:43;;;;;;;;;;;20.10;99.90;;;;;;5097988;28;19915;-10
2022/10/17 02:41:10;;;;;;;;;;;20.10;99.90;;;;;;5097628;28;20167;-11
2022/10/17 02:43:36;;;;;;;;;;;20.10;99.90;;;;;;5098801;28;20003;-11
2022/10/17 02:46:02;;;;;;;;;;;20.10;99.90;;;;;;5094858;28;19912;-11
2022/10/17 02:48:33;;;;;;;;;;;20.10;99.90;;;;;;5095558;28;19915;-9
2022/10/17 02:51:11;;;;;;;;;;;20.10;99.90;;;;;;5095701;28;20266;-11
2022/10/17 02:53:36;;;;;;;;;;;20.10;99.90;;;;;;5095917;28;20002;-12
2022/10/17 02:56:05;;;;;;;;;;;20.10;99.90;;;;;;5095749;28;20015;-10
2022/10/17 02:58:32;;;;;;;;;;;20.10;99.90;;;;;;5096923;28;19912;-12
2022/10/17 03:00:58;;;;;;;;;;;20.10;99.90;;;;;;5095178;28;19912;-12
2022/10/17 03:03:26;;;;;;;;;;;20.10;99.90;;;;;;5095957;28;19908;-12
2022/10/17 03:05:52;;;;;;;;;;;20.10;99.90;;;;;;5096077;28;19916;-10
2022/10/17 03:08:18;;;;;;;;;;;20.10;99.90;;;;;;5095627;28;19914;-12
2022/10/17 03:10:44;;;;;;;;;;;20.10;99.90;;;;;;5094608;28;20268;-9
2022/10/17 03:13:10;;;;;;;;;;;20.10;99.90;;;;;;5094630;28;19908;-12
2022/10/17 03:15:35;;;;;;;;;;;20.10;99.90;;;;;;5094996;28;19931;-11
2022/10/17 03:18:01;;;;;;;;;;;20.10;99.90;;;;;;5095523;28;20030;-11
2022/10/17 03:20:27;;;;;;;;;;;20.10;99.90;;;;;;5093197;28;19912;-11
2022/10/17 03:22:52;;;;;;;;;;;20.10;99.90;;;;;;5091815;28;20342;-12
2022/10/17 03:25:18;;;;;;;;;;;20.10;99.90;;;;;;5095785;28;19982;-11
2022/10/17 03:27:43;;;;;;;;;;;20.10;99.90;;;;;;5090959;28;19943;-11
2022/10/17 03:30:09;;;;;;;;;;;20.10;99.90;;;;;;5091214;28;20224;-11
2022/10/17 03:32:34;;;;;;;;;;;20.10;99.90;;;;;;5089757;28;19969;-11
2022/10/17 03:35:00;;;;;;;;;;;20.10;99.90;;;;;;5091738;28;19915;-12
2022/10/17 03:37:26;;;;;;;;;;;20.10;99.90;;;;;;5090100;28;20207;-9
2022/10/17 03:39:52;;;;;;;;;;;20.10;99.90;;;;;;5092117;28;20133;-12
2022/10/17 03:42:17;;;;;;;;;;;20.10;99.90;;;;;;5092220;28;20044;-10
2022/10/17 03:44:42;;;;;;;;;;;20.10;99.90;;;;;;5093414;28;19916;-10
2022/10/17 03:47:08;;;;;;;;;;;20.10;99.90;;;;;;5093548;28;19990;-12
2022/10/17 03:49:34;;;;;;;;;;;20.10;99.90;;;;;;5092906;28;20145;-11
2022/10/17 03:51:59;;;;;;;;;;;20.10;99.90;;;;;;5093744;28;19943;-10
2022/10/17 03:54:25;;;;;;;;;;;20.10;99.90;;;;;;5092760;28;20005;-12
2022/10/17 03:56:50;;;;;;;;;;;20.10;99.90;;;;;;5092706;28;19918;-11
2022/10/17 03:59:16;;;;;;;;;;;20.10;99.90;;;;;;5093123;28;19916;-11
2022/10/17 04:01:42;;;;;;;;;;;20.10;99.90;;;;;;5093783;28;19915;-11
2022/10/17 04:04:08;;;;;;;;;;;20.10;99.90;;;;;;5091767;28;20225;-10
2022/10/17 04:06:34;;;;;;;;;;;20.10;99.90;;;;;;5092555;28;19947;-12
2022/10/17 04:08:59;;;;;;;;;;;20.10;99.90;;;;;;5091680;28;19909;-13
2022/10/17 04:11:25;;;;;;;;;;;20.10;99.90;;;;;;5089116;28;20118;-13
2022/10/17 04:13:54;;;;;;;;;;;20.10;99.90;;;;;;5090188;28;19908;-10
2022/10/17 04:16:20;;;;;;;;;;;20.10;99.90;;;;;;5091742;28;20055;-12
2022/10/17 04:18:46;;;;;;;;;;;20.10;99.90;;;;;;5091929;28;20052;-12
2022/10/17 04:21:12;;;;;;;;;;;20.10;99.90;;;;;;5092304;28;20204;-10
2022/10/17 04:23:38;;;;;;;;;;;20.10;99.90;;;;;;5093132;28;19914;-12
2022/10/17 04:26:04;;;;;;;;;;;20.10;99.90;;;;;;5090551;28;19918;-12
2022/10/17 04:28:30;;;;;;;;;;;20.10;99.90;;;;;;5092526;28;19908;-11
2022/10/17 04:30:57;;;;;;;;;;;20.10;99.90;;;;;;5092292;28;20009;-11
2022/10/17 04:33:22;;;;;;;;;;;20.10;99.90;;;;;;5092834;28;19927;-10
2022/10/17 04:36:01;;;;;;;;;;;20.10;99.90;;;;;;5093125;28;19908;-12
2022/10/17 04:38:28;;;;;;;;;;;20.10;99.90;;;;;;5094256;28;19931;-11
2022/10/17 04:40:53;;;;;;;;;;;20.10;99.90;;;;;;5092289;28;19923;-11
2022/10/17 04:43:20;;;;;;;;;;;20.10;99.90;;;;;;5089319;28;21693;-12
2022/10/17 04:45:45;;;;;;;;;;;20.10;99.90;;;;;;5090869;28;19915;-10
2022/10/17 04:48:11;;;;;;;;;;;20.10;99.90;;;;;;5090479;28;19908;-11
2022/10/17 04:50:37;;;;;;;;;;;20.10;99.90;;;;;;5089610;28;19969;-12
2022/10/17 04:53:02;;;;;;;;;;;20.10;99.90;;;;;;5088934;28;20049;-10
2022/10/17 04:55:28;;;;;;;;;;;20.10;99.90;;;;;;5088458;28;20161;-12
2022/10/17 04:57:53;;;;;;;;;;;20.10;99.90;;;;;;5090845;28;19919;-11
2022/10/17 05:00:19;;;;;;;;;;;20.10;99.90;;;;;;5090134;28;19954;-10
2022/10/17 05:02:44;;;;;;;;;;;20.10;99.90;;;;;;5090537;28;19912;-10
2022/10/17 05:05:10;;;;;;;;;;;20.10;99.90;;;;;;5088280;28;19908;-12
2022/10/17 05:07:38;;;;;;;;;;;20.10;99.90;;;;;;5086565;28;20382;-11
2022/10/17 05:10:04;;;;;;;;;;;20.10;99.90;;;;;;5088653;28;19943;-11
2022/10/17 05:12:30;;;;;;;;;;;20.10;99.90;;;;;;5085966;28;19943;-10
2022/10/17 05:14:55;;;;;;;;;;;20.10;99.90;;;;;;5086861;28;20219;-10
2022/10/17 05:17:21;;;;;;;;;;;20.10;99.90;;;;;;5086392;28;20093;-11
2022/10/17 05:19:46;;;;;;;;;;;20.10;99.90;;;;;;5086762;28;19912;-12
2022/10/17 05:22:12;;;;;;;;;;;20.10;99.90;;;;;;5087291;28;20022;-10
2022/10/17 05:24:37;;;;;;;;;;;20.10;99.90;;;;;;5090172;28;19912;-12
2022/10/17 05:27:03;;;;;;;;;;;20.10;99.90;;;;;;5090122;28;19977;-10
2022/10/17 05:29:29;;;;;;;;;;;20.10;99.90;;;;;;5087892;28;19919;-12
2022/10/17 05:31:54;;;;;;;;;;;20.10;99.90;;;;;;5088926;28;19935;-11
2022/10/17 05:34:20;;;;;;;;;;;20.10;99.90;;;;;;5087337;28;19912;-13
2022/10/17 05:36:45;;;;;;;;;;;20.10;99.90;;;;;;5088215;28;19979;-11
2022/10/17 05:39:13;;;;;;;;;;;20.10;99.90;;;;;;5087321;28;20269;-12
2022/10/17 05:41:39;;;;;;;;;;;20.10;99.90;;;;;;5088890;28;20350;-11
2022/10/17 05:44:04;;;;;;;;;;;20.10;99.90;;;;;;5090102;28;19915;-11
2022/10/17 05:46:30;;;;;;;;;;;20.10;99.90;;;;;;5089119;28;19912;-12
2022/10/17 05:51:40;;;;;;;;;;;20.10;99.90;;;;;;5088672;28;19973;-11
2022/10/17 05:54:06;;;;;;;;;;;20.10;99.90;;;;;;5086550;28;19915;-11
2022/10/17 05:56:31;;;;;;;;;;;20.10;99.90;;;;;;5086416;28;19967;-10
2022/10/17 05:58:57;;;;;;;;;;;20.10;99.90;;;;;;5086077;28;19912;-11
2022/10/17 06:01:23;;;;;;;;;;;20.10;99.90;;;;;;5088642;28;20007;-10
2022/10/17 06:03:49;;;;;;;;;;;20.10;99.90;;;;;;5087050;28;19935;-11
2022/10/17 06:06:15;;;;;;;;;;;20.10;99.90;;;;;;5084412;28;20406;-12
2022/10/17 06:08:40;;;;;;;;;;;20.10;99.90;;;;;;5086103;28;20176;-12
2022/10/17 06:11:07;;;;;;;;;;;20.10;99.90;;;;;;5085791;28;19916;-11
2022/10/17 06:13:32;;;;;;;;;;;20.20;99.90;;;;;;5084860;28;20261;-11
2022/10/17 06:15:58;;;;;;;;;;;20.20;99.90;;;;;;5085104;28;19913;-12
2022/10/17 06:18:23;;;;;;;;;;;20.20;99.90;;;;;;5083864;28;19950;-11
2022/10/17 06:20:49;;;;;;;;;;;20.20;99.90;;;;;;5084360;28;20036;-12
2022/10/17 06:23:15;;;;;;;;;;;20.20;99.90;;;;;;5087329;28;20185;-11
2022/10/17 06:25:40;;;;;;;;;;;20.20;99.90;;;;;;5085495;28;20384;-12
2022/10/17 06:28:06;;;;;;;;;;;20.30;99.90;;;;;;5087334;28;19915;-12
2022/10/17 06:30:31;;;;;;;;;;;20.30;99.90;;;;;;5085813;28;19920;-11
2022/10/17 06:32:57;;;;;;;;;;;20.30;99.90;;;;;;5085575;28;19931;-12
2022/10/17 06:35:23;;;;;;;;;;;20.40;99.90;;;;;;5086687;28;19908;-11
2022/10/17 06:37:48;;;;;;;;;;;20.40;99.90;;;;;;5086895;28;20081;-10
2022/10/17 06:40:15;;;;;;;;;;;20.40;99.90;;;;;;5087845;28;19912;-11
2022/10/17 06:42:41;;;;;;;;;;;20.40;99.90;;;;;;5088299;28;19908;-11
2022/10/17 06:45:07;;;;;;;;;;;20.50;99.90;;;;;;5090657;28;19908;-11
2022/10/17 06:47:33;;;;;;;;;;;20.50;99.90;;;;;;5090452;28;20148;-12
2022/10/17 06:49:59;;;;;;;;;;;20.60;99.90;;;;;;5091363;28;20114;-12
2022/10/17 06:52:24;;;;;;;;;;;20.60;99.90;;;;;;5089306;28;20292;-10
2022/10/17 06:54:53;;;;;;;;;;;20.60;99.90;;;;;;5090382;28;20065;-12
2022/10/17 06:57:19;;;;;;;;;;;20.70;99.90;;;;;;5087443;28;19908;-11
2022/10/17 06:59:44;;;;;;;;;;;20.80;99.90;;;;;;5087827;28;19973;-11
2022/10/17 07:02:10;;;;;;;;;;;20.80;99.90;;;;;;5088976;28;19994;-12
2022/10/17 07:04:36;;;;;;;;;;;20.90;99.90;;;;;;5091643;28;20423;-13
2022/10/17 07:07:02;;;;;;;;;;;21.00;99.90;;;;;;5097101;28;19999;-12
2022/10/17 07:09:28;;;;;;;;;;;21.20;99.90;;;;;;5093406;28;20273;-12
2022/10/17 07:11:54;;;;;;;;;;;21.40;99.90;;;;;;5086146;28;20483;-11
2022/10/17 07:14:19;;;;;;;;;;;21.50;99.90;;;;;;5090080;28;20484;-11
2022/10/17 07:16:45;;;;;;;;;;;21.70;99.90;;;;;;5095754;28;19968;-11
2022/10/17 07:19:11;;;;;;;;;;;21.80;99.90;;;;;;5095550;28;19974;-13
2022/10/17 07:21:36;;;;;;;;;;;21.90;99.90;;;;;;5088593;28;19981;-11
2022/10/17 07:24:02;;;;;;;;;;;21.80;99.90;;;;;;5087151;28;19920;-12
2022/10/17 07:26:28;;;;;;;;;;;21.80;99.90;;;;;;5087429;28;20232;-12
2022/10/17 07:28:54;;;;;;;;;;;22.10;99.70;;;;;;5087842;28;19912;-11
2022/10/17 07:31:21;;;;;;;;;;;22.40;99.10;;;;;;5087774;28;19924;-11
2022/10/17 07:33:47;;;;;;;;;;;22.70;98.40;;;;;;5085963;28;19916;-12
2022/10/17 07:36:12;;;;;;;;;;;23.00;97.60;;;;;;5087388;28;20308;-11
2022/10/17 07:38:38;;;;;;;;;;;23.70;96.10;;;;;;5083658;28;19908;-10
2022/10/17 07:41:05;;;;;;;;;;;23.80;95.20;;;;;;5085914;28;19926;-10
2022/10/17 07:43:31;;;;;;;;;;;23.70;95.10;;;;;;5081582;28;20162;-11
2022/10/17 07:45:56;;;;;;;;;;;23.70;95.20;;;;;;5084042;28;20374;-11
2022/10/17 07:48:23;;;;;;;;;;;23.70;95.20;;;;;;5085485;28;19908;-11
2022/10/17 07:50:49;;;;;;;;;;;23.50;95.40;;;;;;5086365;28;20218;-12
2022/10/17 07:53:14;;;;;;;;;;;23.20;96.00;;;;;;5086007;28;20054;-11
2022/10/17 07:55:40;;;;;;;;;;;23.00;96.60;;;;;;5087234;28;19973;-13
2022/10/17 07:58:07;;;;;;;;;;;22.80;97.30;;;;;;5086721;28;19961;-12
2022/10/17 08:00:33;;;;;;;;;;;22.60;97.60;;;;;;5087206;28;19922;-11
2022/10/17 08:02:58;;;;;;;;;;;22.50;98.00;;;;;;5086280;28;19912;-13
2022/10/17 08:05:24;;;;;;;;;;;22.30;98.30;;;;;;5087124;28;20006;-12
2022/10/17 08:07:49;;;;;;;;;;;22.30;98.70;;;;;;5084274;28;20212;-11
2022/10/17 08:10:15;;;;;;;;;;;22.40;98.70;;;;;;5084788;28;19908;-12
2022/10/17 08:12:41;;;;;;;;;;;22.70;98.30;;;;;;5087812;28;19952;-14
2022/10/17 08:15:07;;;;;;;;;;;23.20;97.00;;;;;;5085627;28;19938;-12
2022/10/17 08:17:33;;;;;;;;;;;23.80;96.00;;;;;;5085648;28;19938;-12
2022/10/17 08:19:59;;;;;;;;;;;24.50;94.00;;;;;;5085215;28;20269;-12
2022/10/17 08:22:25;;;;;;;;;;;24.80;92.80;;;;;;5084406;28;19908;-12
2022/10/17 08:24:50;;;;;;;;;;;25.10;91.60;;;;;;5083799;28;19908;-12
2022/10/17 08:27:22;;;;;;;;;;;25.30;90.80;;;;;;5084742;28;19923;-11
2022/10/17 08:29:51;;;;;;;;;;;25.60;90.00;;;;;;5086043;28;19915;-11
2022/10/17 08:32:17;;;;;;;;;;;25.80;87.90;;;;;;5085324;28;19977;-11
2022/10/17 08:34:43;;;;;;;;;;;26.00;86.80;;;;;;5085755;28;19912;-12
2022/10/17 08:37:09;;;;;;;;;;;26.30;85.10;;;;;;5088936;28;19916;-12
2022/10/17 08:39:34;;;;;;;;;;;26.70;82.50;;;;;;5088668;28;19924;-12
2022/10/17 08:42:15;;;;;;;;;;;26.90;80.90;;;;;;5087908;28;20048;-12
2022/10/17 08:44:56;;;;;;;;;;;27.20;79.00;;;;;;5086381;28;20297;-12
2022/10/17 08:47:33;;;;;;;;;;;26.90;80.00;;;;;;5086437;28;20213;-11
2022/10/17 08:50:01;;;;;;;;;;;27.50;77.80;;;;;;5087834;28;20153;-12
2022/10/17 08:52:39;;;;;;;;;;;27.70;75.00;;;;;;5087487;28;20022;-13
2022/10/17 08:55:32;;;;;;;;;;;27.90;73.50;;;;;;5086169;28;20291;-9
2022/10/17 08:57:57;;;;;;;;;;;28.10;72.00;;;;;;5070505;28;19908;-11
2022/10/17 09:00:23;;;;;;;;;;;27.90;71.70;;;;;;5088004;28;20005;-9
2022/10/17 09:03:13;;;;;;;;;;;28.10;71.20;;;;;;5086946;28;20003;-9
2022/10/17 09:05:41;;;;;;;;;;;28.30;70.10;;;;;;5087026;28;19919;-11
2022/10/17 09:08:34;;;;;;;;;;;28.50;68.90;;;;;;5088494;28;20357;-9
2022/10/17 09:11:14;;;;;;;;;;;28.40;68.80;;;;;;5085827;28;20057;-9
2022/10/17 09:13:42;;;;;;;;;;;28.60;68.20;;;;;;5085751;28;19908;-9
2022/10/17 09:16:18;;;;;;;;;;;28.40;68.10;;;;;;5088249;28;19908;-10
2022/10/17 09:18:54;;;;;;;;;;;28.30;68.30;;;;;;5087008;28;20105;-8
2022/10/17 09:21:43;;;;;;;;;;;27.90;69.60;;;;;;5084884;28;19996;-10
2022/10/17 09:24:21;;;;;;;;;;;27.30;72.40;;;;;;5078232;28;19918;-10
2022/10/17 09:26:46;;;;;;;;;;;27.60;72.80;;;;;;5083392;28;20265;-10
2022/10/17 09:29:23;;;;;;;;;;;27.90;71.40;;;;;;5084414;28;20383;-9
2022/10/17 09:32:09;;;;;;;;;;;27.10;72.50;;;;;;5085936;28;20266;-9
2022/10/17 09:34:35;;;;;;;;;;;26.30;77.20;;;;;;5084381;28;20006;-9
2022/10/17 09:37:01;;;;;;;;;;;25.60;82.40;;;;;;5086858;28;20014;-9
2022/10/17 09:39:30;;;;;;;;;;;25.30;85.40;;;;;;5085776;28;19926;-9
2022/10/17 09:41:57;;;;;;;;;;;24.90;88.20;;;;;;5084543;28;19909;-9
2022/10/17 09:44:24;;;;;;;;;;;24.70;90.40;;;;;;5084843;28;19919;-8
2022/10/17 09:47:09;;;;;;;;;;;24.50;91.40;;;;;;5086189;28;20327;-10
2022/10/17 09:49:36;;;;;;;;;;;24.30;92.10;;;;;;5082948;28;20165;-9
2022/10/17 09:52:02;;;;;;;;;;;24.10;92.80;;;;;;5085843;28;20154;-8
2022/10/17 09:54:35;;;;;;;;;;;23.90;93.50;;;;;;5082812;28;19923;-9
2022/10/17 09:57:02;;;;;;;;;;;23.80;93.90;;;;;;5082881;28;20004;-10
2022/10/17 09:59:38;;;;;;;;;;;23.70;94.30;;;;;;5083519;28;19912;-9
2022/10/17 10:02:23;;;;;;;;;;;23.60;94.70;;;;;;5086359;28;19908;-10
2022/10/17 10:04:51;;;;;;;;;;;23.50;95.20;;;;;;5085501;28;19973;-10
2022/10/17 10:07:19;;;;;;;;;;;23.40;95.70;;;;;;5085450;28;19908;-9
2022/10/17 10:09:45;;;;;;;;;;;23.30;95.90;;;;;;5086604;28;19908;-10
2022/10/17 10:12:25;;;;;;;;;;;23.30;96.30;;;;;;5087738;28;19968;-9
2022/10/17 10:14:51;;;;;;;;;;;23.10;96.70;;;;;;5087970;28;19908;-9
2022/10/17 10:17:33;;;;;;;;;;;23.00;97.10;;;;;;5089618;28;19995;-8
2022/10/17 10:19:59;;;;;;;;;;;23.00;97.30;;;;;;5089967;28;19912;-8
2022/10/17 10:22:25;;;;;;;;;;;22.90;97.50;;;;;;5087641;28;19908;-10
2022/10/17 10:25:09;;;;;;;;;;;22.80;97.80;;;;;;5088397;28;20042;-9
2022/10/17 10:27:35;;;;;;;;;;;22.80;98.10;;;;;;5090518;28;19912;-8
2022/10/17 10:30:01;;;;;;;;;;;22.70;98.40;;;;;;5088078;28;19915;-8
2022/10/17 10:32:28;;;;;;;;;;;22.60;98.50;;;;;;5086412;28;20119;-9
2022/10/17 10:35:06;;;;;;;;;;;22.60;98.80;;;;;;5086639;28;19908;-7
2022/10/17 10:37:37;;;;;;;;;;;22.50;99.00;;;;;;5086607;28;19908;-10
2022/10/17 10:40:14;;;;;;;;;;;22.50;99.10;;;;;;5084384;28;20144;-8
2022/10/17 10:42:40;;;;;;;;;;;22.40;99.30;;;;;;5086414;28;19908;-8
2022/10/17 10:45:24;;;;;;;;;;;22.40;99.50;;;;;;5086426;28;19908;-8
2022/10/17 10:47:57;;;;;;;;;;;22.40;99.60;;;;;;5084508;28;19908;-9
2022/10/17 10:50:29;;;;;;;;;;;22.30;99.70;;;;;;5086460;28;19908;-9
2022/10/17 10:53:06;;;;;;;;;;;22.30;99.80;;;;;;5086621;28;20439;-11
2022/10/17 10:55:35;;;;;;;;;;;22.30;99.90;;;;;;5087220;28;19908;-9
2022/10/17 10:58:08;;;;;;;;;;;22.30;99.90;;;;;;5086568;28;19991;-9
2022/10/17 11:00:36;;;;;;;;;;;22.30;99.90;;;;;;5084954;28;19965;-9
2022/10/17 11:03:05;;;;;;;;;;;22.30;99.90;;;;;;5087279;28;19989;-8
2022/10/17 11:05:36;;;;;;;;;;;22.30;99.90;;;;;;5086211;28;20097;-9
2022/10/17 11:08:16;;;;;;;;;;;22.30;99.90;;;;;;5086286;28;19973;-9
2022/10/17 11:10:50;;;;;;;;;;;22.40;99.90;;;;;;5085510;28;19908;-8
2022/10/17 11:13:18;;;;;;;;;;;22.40;99.90;;;;;;5084378;28;20273;-10
2022/10/17 11:15:50;;;;;;;;;;;22.40;99.90;;;;;;5085326;28;19908;-8
2022/10/17 11:18:25;;;;;;;;;;;22.30;99.90;;;;;;5085799;28;20166;-7
2022/10/17 11:20:56;;;;;;;;;;;22.30;99.90;;;;;;5086164;28;20277;-10
2022/10/17 11:23:37;;;;;;;;;;;22.30;99.90;;;;;;5082616;28;19908;-10
2022/10/17 11:26:06;;;;;;;;;;;22.30;99.90;;;;;;5084095;28;19918;-8
2022/10/17 11:28:31;;;;;;;;;;;22.30;99.90;;;;;;5085807;28;20168;-7
2022/10/17 11:31:06;;;;;;;;;;;22.30;99.90;;;;;;5084783;28;19908;-10
2022/10/17 11:33:43;;;;;;;;;;;22.30;99.90;;;;;;5084157;28;19920;-9
2022/10/17 11:36:09;;;;;;;;;;;22.30;99.90;;;;;;5083192;28;19912;-9
2022/10/17 11:38:49;;;;;;;;;;;22.30;99.90;;;;;;5093557;28;19912;-8
2022/10/17 11:41:30;;;;;;;;;;;22.30;99.90;;;;;;5092912;28;19927;-9
2022/10/17 11:44:01;;;;;;;;;;;22.30;99.90;;;;;;5082426;28;20210;-9
2022/10/17 11:46:28;;;;;;;;;;;22.30;99.90;;;;;;5082284;28;19909;-9
2022/10/17 11:48:54;;;;;;;;;;;22.30;99.90;;;;;;5082763;28;20011;-7
2022/10/17 11:51:19;;;;;;;;;;;22.30;99.90;;;;;;5081235;28;20041;-8
2022/10/17 11:53:57;;;;;;;;;;;22.20;99.90;;;;;;5086390;28;19981;-10
2022/10/17 11:56:38;;;;;;;;;;;22.20;99.90;;;;;;5087222;28;19916;-8
2022/10/17 11:59:07;;;;;;;;;;;22.20;99.90;;;;;;5085726;28;20339;-10
2022/10/17 12:01:40;;;;;;;;;;;22.20;99.90;;;;;;5087644;28;19918;-9
2022/10/17 12:04:30;;;;;;;;;;;22.20;99.90;;;;;;5067449;28;20163;-8
2022/10/17 12:07:03;;;;;;;;;;;22.30;99.90;;;;;;5086454;28;19916;-9
2022/10/17 12:09:29;;;;;;;;;;;22.20;99.90;;;;;;5086379;28;19908;-10
2022/10/17 12:11:56;;;;;;;;;;;22.20;99.90;;;;;;5084113;28;20154;-8
2022/10/17 12:14:38;;;;;;;;;;;22.20;99.90;;;;;;5086120;28;19915;-8
2022/10/17 12:17:26;;;;;;;;;;;22.20;99.90;;;;;;5083999;28;19908;-8
2022/10/17 12:19:52;;;;;;;;;;;22.30;99.90;;;;;;5083882;28;19923;-9
2022/10/17 12:22:19;;;;;;;;;;;22.20;99.90;;;;;;5083199;28;19908;-8
2022/10/17 12:24:53;;;;;;;;;;;22.20;99.90;;;;;;5080773;28;20013;-9
2022/10/17 12:27:46;;;;;;;;;;;22.20;99.90;;;;;;5081289;28;19977;-8
2022/10/17 12:30:11;;;;;;;;;;;22.20;99.90;;;;;;5084915;28;19908;-8
2022/10/17 12:32:51;;;;;;;;;;;22.20;99.90;;;;;;5087619;28;19923;-10
2022/10/17 12:35:20;;;;;;;;;;;22.20;99.90;;;;;;5084725;28;19908;-8
2022/10/17 12:37:49;;;;;;;;;;;22.20;99.90;;;;;;5085245;28;19908;-8
2022/10/17 12:40:33;;;;;;;;;;;22.20;99.90;;;;;;5081386;28;20163;-10
2022/10/17 12:42:59;;;;;;;;;;;22.20;99.90;;;;;;5082969;28;19924;-9
2022/10/17 12:45:43;;;;;;;;;;;22.20;99.90;;;;;;5061328;28;19969;-8
2022/10/17 12:48:09;;;;;;;;;;;22.20;99.90;;;;;;5062063;28;19908;-8
2022/10/17 12:50:53;;;;;;;;;;;22.20;99.90;;;;;;5061646;28;20269;-9
2022/10/17 12:53:20;;;;;;;;;;;22.20;99.90;;;;;;5063575;28;20068;-8
2022/10/17 12:55:46;;;;;;;;;;;22.20;99.90;;;;;;5064930;28;19913;-9
2022/10/17 12:58:15;;;;;;;;;;;22.20;99.90;;;;;;5066713;28;19935;-9
2022/10/17 13:00:42;;;;;;;;;;;22.20;99.90;;;;;;5065933;28;19912;-9
2022/10/17 13:03:20;;;;;;;;;;;22.20;99.90;;;;;;5063838;28;19915;-10
2022/10/17 13:05:53;;;;;;;;;;;22.20;99.90;;;;;;5064046;28;19991;-9
2022/10/17 13:08:21;;;;;;;;;;;22.10;99.90;;;;;;5065422;28;20006;-9
2022/10/17 13:10:48;;;;;;;;;;;22.20;99.90;;;;;;5061452;28;19973;-8
2022/10/17 13:13:22;;;;;;;;;;;22.10;99.90;;;;;;5063697;28;20140;-8
2022/10/17 13:15:48;;;;;;;;;;;22.10;99.90;;;;;;5066096;28;19927;-11
2022/10/17 13:18:19;;;;;;;;;;;22.10;99.90;;;;;;5064797;28;20066;-9
2022/10/17 13:20:53;;;;;;;;;;;22.10;99.90;;;;;;5065481;28;19924;-9
2022/10/17 13:23:25;;;;;;;;;;;22.10;99.90;;;;;;5064888;28;20177;-10
2022/10/17 13:26:03;;;;;;;;;;;22.00;99.90;;;;;;5065375;28;19912;-8
2022/10/17 13:28:28;;;;;;;;;;;22.00;99.90;;;;;;5064765;28;19920;-9
2022/10/17 13:30:54;;;;;;;;;;;22.10;99.90;;;;;;5067146;28;19974;-8
2022/10/17 13:33:39;;;;;;;;;;;22.10;99.90;;;;;;5065204;28;20111;-9
2022/10/17 13:36:14;;;;;;;;;;;22.10;99.90;;;;;;5062671;28;20021;-9
2022/10/17 13:38:40;;;;;;;;;;;22.10;99.90;;;;;;5064610;28;20113;-8
2022/10/17 13:41:10;;;;;;;;;;;22.10;99.90;;;;;;5062863;28;19982;-10
2022/10/17 13:43:35;;;;;;;;;;;22.10;99.90;;;;;;5062521;28;19912;-11
2022/10/17 13:46:04;;;;;;;;;;;22.20;99.90;;;;;;5066083;28;19957;-11
2022/10/17 13:48:32;;;;;;;;;;;22.20;99.90;;;;;;5065166;28;20316;-11
2022/10/17 13:51:00;;;;;;;;;;;22.10;99.90;;;;;;5065428;28;19908;-12
2022/10/17 13:53:33;;;;;;;;;;;22.10;99.90;;;;;;5063859;28;20227;-11
2022/10/17 13:55:59;;;;;;;;;;;22.10;99.90;;;;;;5064601;28;20548;-11
2022/10/17 13:58:26;;;;;;;;;;;22.10;99.90;;;;;;5064376;28;19912;-12
2022/10/17 14:00:52;;;;;;;;;;;22.00;99.90;;;;;;5063920;28;19912;-12
2022/10/17 14:03:19;;;;;;;;;;;22.00;99.90;;;;;;5065556;28;19962;-10
2022/10/17 14:05:58;;;;;;;;;;;22.00;99.90;;;;;;5065438;28;19994;-11
2022/10/17 14:08:24;;;;;;;;;;;22.00;99.90;;;;;;5066507;28;19908;-12
2022/10/17 14:10:50;;;;;;;;;;;22.00;99.90;;;;;;5066013;28;19908;-11
2022/10/17 14:13:18;;;;;;;;;;;22.00;99.90;;;;;;5067588;28;19944;-12
2022/10/17 14:15:44;;;;;;;;;;;22.00;99.90;;;;;;5068116;28;20167;-13
2022/10/17 14:18:17;;;;;;;;;;;21.90;99.90;;;;;;5070866;28;19909;-12
2022/10/17 14:20:47;;;;;;;;;;;21.90;99.90;;;;;;5076650;28;19912;-12
2022/10/17 14:23:31;;;;;;;;;;;21.90;99.90;;;;;;5077946;28;20006;-12
2022/10/17 14:26:05;;;;;;;;;;;21.90;99.90;;;;;;5068439;28;20329;-11
2022/10/17 14:28:31;;;;;;;;;;;21.90;99.90;;;;;;5067073;28;20095;-11
2022/10/17 14:31:09;;;;;;;;;;;21.90;99.90;;;;;;5066232;28;20085;-12
2022/10/17 14:33:35;;;;;;;;;;;21.90;99.90;;;;;;5064585;28;19924;-11
2022/10/17 14:36:01;;;;;;;;;;;21.90;99.90;;;;;;5064843;28;19908;-11